Subpeak Weather - Last 24 Hours


View Last Hour    View Last 24 Hours

Time
Avg. Air Temp
Dew Point
Avg. Rel Humidity
Avg. 2 Min Wind Speed
Max Gust Velocity
MGV Time
MGV Direction
Avg. Spot Wind Velocity
2015-01-29 08:15:00-6° C-11° C69%26 km/h29 km/h2015-01-29 08:12:10S26 km/h
2015-01-29 07:15:00-7° C-9° C81%26 km/h29 km/h2015-01-29 07:11:00S25 km/h
2015-01-29 06:15:00-7° C-9° C83%27 km/h31 km/h2015-01-29 06:14:10S26 km/h
2015-01-29 05:15:00-6° C-10° C74%23 km/h28 km/h2015-01-29 05:13:10S24 km/h
2015-01-29 04:15:00-6° C-10° C76%23 km/h25 km/h2015-01-29 04:13:10S22 km/h
2015-01-29 03:15:00-6° C-9° C82%25 km/h27 km/h2015-01-29 03:15:10S24 km/h
2015-01-29 02:15:00-6° C-9° C79%26 km/h31 km/h2015-01-29 02:15:10S24 km/h
2015-01-29 01:15:00-6° C-9° C81%26 km/h30 km/h2015-01-29 01:15:10S27 km/h
2015-01-29 00:20:00-6° C-9° C80%24 km/h29 km/h2015-01-29 00:20:10SE24 km/h
2015-01-28 23:20:00-6° C-10° C76%18 km/h22 km/h2015-01-28 23:16:00SE19 km/h
2015-01-28 22:20:00-6° C-10° C77%18 km/h19 km/h2015-01-28 22:20:10SE17 km/h
2015-01-28 21:20:00-6° C-10° C74%24 km/h29 km/h2015-01-28 21:18:10S24 km/h
2015-01-28 20:20:00-6° C-10° C76%27 km/h31 km/h2015-01-28 20:17:10S26 km/h
2015-01-28 19:20:00-6° C-9° C79%22 km/h28 km/h2015-01-28 19:16:00SE22 km/h
2015-01-28 18:20:00-7° C-9° C82%14 km/h16 km/h2015-01-28 18:16:00SE13 km/h
2015-01-28 17:20:00-6° C-10° C75%10 km/h10 km/h2015-01-28 17:20:10S10 km/h
2015-01-28 16:20:00-6° C-9° C81%5 km/h8 km/h2015-01-28 16:17:10SW6 km/h
2015-01-28 15:20:00-4° C-8° C75%0 km/h4 km/h2015-01-28 15:16:00W0 km/h
2015-01-28 14:20:00-5° C-8° C77%8 km/h11 km/h2015-01-28 14:16:00W8 km/h
2015-01-28 13:20:00139° C84° C15%4 km/h7 km/h2015-01-28 13:18:10W5 km/h
2015-01-28 12:20:00139° C79° C12%9 km/h10 km/h2015-01-28 12:17:10W9 km/h
2015-01-28 11:20:00139° C75° C10%7 km/h8 km/h2015-01-28 11:19:10W7 km/h
2015-01-28 10:20:00140° C70° C8%8 km/h9 km/h2015-01-28 10:19:10W8 km/h
2015-01-28 09:20:00140° C69° C8%4 km/h6 km/h2015-01-28 09:17:10NW5 km/h